Time;durP1;ratioP1;P1;durP2;ratioP2;P2;SDS_P1;SDS_P2;PMS_P1;PMS_P2;Temp;Humidity;BMP_temperature;BMP_pressure;BME280_temperature;BME280_humidity;BME280_pressure;Samples;Min_cycle;Max_cycle;Signal;HPM_P1;HPM_P2
2021/04/14 00:00:22;;;;;;;0.40;0.20;;;9.90;93.20;;;;;;4998010;28;20053;-74
2021/04/14 00:02:50;;;;;;;0.65;0.20;;;9.80;93.30;;;;;;4994197;28;20050;-74
2021/04/14 00:05:20;;;;;;;0.60;0.20;;;9.70;93.30;;;;;;4966162;28;20056;-74
2021/04/14 00:07:48;;;;;;;0.38;0.30;;;9.70;93.50;;;;;;4997644;28;20073;-75
2021/04/14 00:10:20;;;;;;;0.77;0.32;;;9.70;93.50;;;;;;4983945;28;20462;-74
2021/04/14 00:12:48;;;;;;;0.25;0.20;;;9.70;93.60;;;;;;4983014;28;20057;-75
2021/04/14 00:15:19;;;;;;;0.40;0.20;;;9.70;93.70;;;;;;4983719;28;20506;-75
2021/04/14 00:17:47;;;;;;;0.77;0.30;;;9.70;93.90;;;;;;4968857;28;20050;-74
2021/04/14 00:20:16;;;;;;;1.77;0.28;;;9.70;94.00;;;;;;4982487;28;20052;-75
2021/04/14 00:22:44;;;;;;;0.57;0.32;;;9.70;93.90;;;;;;4982927;28;20518;-74
2021/04/14 00:25:15;;;;;;;1.58;0.30;;;9.70;94.00;;;;;;4981313;28;20046;-74
2021/04/14 00:27:44;;;;;;;0.20;0.20;;;9.70;94.20;;;;;;4977463;28;20050;-75
2021/04/14 00:30:14;;;;;;;0.30;0.28;;;9.60;94.30;;;;;;4960593;28;20046;-74
2021/04/14 00:32:42;;;;;;;0.50;0.40;;;9.60;94.80;;;;;;5000711;28;20827;-74
2021/04/14 00:35:11;;;;;;;1.10;0.30;;;9.60;94.80;;;;;;4981442;28;20228;-75
2021/04/14 00:37:40;;;;;;;0.45;0.20;;;9.60;95.00;;;;;;4979598;28;20049;-74
2021/04/14 00:40:11;;;;;;;0.43;0.30;;;9.70;94.80;;;;;;4964589;28;20083;-74
2021/04/14 00:42:40;;;;;;;1.15;0.50;;;9.60;94.70;;;;;;4953591;28;20053;-74
2021/04/14 00:45:11;;;;;;;0.88;0.40;;;9.60;95.50;;;;;;4972570;28;20541;-75
2021/04/14 00:47:39;;;;;;;0.60;0.50;;;9.70;95.40;;;;;;4981826;28;20043;-75
2021/04/14 00:50:08;;;;;;;0.63;0.30;;;9.70;95.30;;;;;;4993608;28;20133;-74
2021/04/14 00:52:37;;;;;;;0.75;0.30;;;9.70;95.50;;;;;;4983279;28;20482;-75
2021/04/14 00:55:09;;;;;;;1.00;0.50;;;9.70;95.80;;;;;;4982845;28;20046;-75
2021/04/14 00:57:37;;;;;;;0.55;0.40;;;9.60;95.90;;;;;;4976932;28;20070;-74
2021/04/14 01:00:07;;;;;;;0.68;0.30;;;9.60;96.50;;;;;;4963255;28;20041;-74
2021/04/14 01:02:36;;;;;;;0.80;0.30;;;9.50;96.40;;;;;;4960277;28;20050;-74
2021/04/14 01:05:07;;;;;;;0.75;0.40;;;9.50;96.70;;;;;;4978522;28;20050;-74
2021/04/14 01:07:35;;;;;;;0.50;0.20;;;9.40;96.70;;;;;;4966536;28;20060;-74
2021/04/14 01:10:04;;;;;;;0.50;0.40;;;9.40;96.70;;;;;;4979688;28;20056;-75
2021/04/14 01:12:33;;;;;;;0.47;0.30;;;9.30;96.70;;;;;;4967587;28;20120;-74
2021/04/14 01:15:01;;;;;;;0.20;0.20;;;9.10;96.70;;;;;;4968412;28;20519;-74
2021/04/14 01:17:30;;;;;;;1.42;0.28;;;9.00;96.70;;;;;;4997513;28;20038;-74
2021/04/14 01:19:59;;;;;;;1.27;0.30;;;9.00;96.70;;;;;;5002364;28;20518;-74
2021/04/14 01:22:28;;;;;;;0.30;0.20;;;9.00;96.70;;;;;;4992060;28;20069;-75
2021/04/14 01:24:56;;;;;;;0.65;0.40;;;8.90;96.70;;;;;;4987462;28;20142;-75
2021/04/14 01:27:24;;;;;;;0.20;0.17;;;8.80;96.70;;;;;;4999049;28;20443;-75
2021/04/14 01:29:52;;;;;;;0.73;0.30;;;8.70;96.70;;;;;;5001243;28;20053;-75
2021/04/14 01:32:21;;;;;;;0.30;0.20;;;8.70;96.70;;;;;;5000160;28;20517;-75
2021/04/14 01:34:49;;;;;;;3.67;0.30;;;8.70;96.70;;;;;;5002489;28;20050;-75
2021/04/14 01:37:18;;;;;;;0.60;0.30;;;8.80;96.70;;;;;;4972446;28;20040;-74
2021/04/14 01:39:47;;;;;;;1.10;0.20;;;8.70;96.70;;;;;;5003115;28;20131;-75
2021/04/14 01:42:15;;;;;;;0.32;0.10;;;8.50;96.70;;;;;;4994917;28;20519;-73
2021/04/14 01:44:43;;;;;;;0.20;0.15;;;8.60;96.70;;;;;;4978870;28;20526;-74
2021/04/14 01:47:11;;;;;;;0.85;0.20;;;8.70;96.70;;;;;;4984871;28;20399;-74
2021/04/14 01:49:39;;;;;;;0.60;0.20;;;8.60;96.70;;;;;;4982636;28;20047;-74
2021/04/14 01:52:07;;;;;;;0.32;0.20;;;8.50;96.70;;;;;;4965372;28;20046;-75
2021/04/14 01:54:36;;;;;;;1.05;0.10;;;8.60;96.70;;;;;;4989739;28;20081;-74
2021/04/14 01:57:07;;;;;;;0.20;0.15;;;8.60;96.70;;;;;;4985387;28;20030;-74
2021/04/14 01:59:35;;;;;;;0.38;0.20;;;8.50;96.70;;;;;;4992491;28;20046;-75
2021/04/14 02:02:04;;;;;;;1.00;0.32;;;8.40;96.70;;;;;;4991110;28;20488;-75
2021/04/14 02:04:33;;;;;;;0.57;0.20;;;8.40;96.70;;;;;;4993244;28;20408;-75
2021/04/14 02:07:01;;;;;;;0.77;0.20;;;8.30;96.70;;;;;;4975473;28;20420;-75
2021/04/14 02:09:28;;;;;;;0.60;0.30;;;8.30;96.70;;;;;;4984519;28;20049;-76
2021/04/14 02:11:57;;;;;;;0.30;0.30;;;8.20;96.70;;;;;;4982264;28;20046;-76
2021/04/14 02:14:25;;;;;;;0.68;0.30;;;8.20;96.70;;;;;;4984471;28;20331;-76
2021/04/14 02:16:53;;;;;;;0.20;0.10;;;8.30;96.70;;;;;;4977519;28;20522;-76
2021/04/14 02:19:21;;;;;;;0.50;0.20;;;8.20;96.70;;;;;;4976818;28;20038;-75
2021/04/14 02:21:49;;;;;;;0.20;0.10;;;8.10;96.70;;;;;;4983237;28;20586;-76
2021/04/14 02:24:17;;;;;;;0.88;0.10;;;8.00;96.70;;;;;;4965793;28;20048;-76
2021/04/14 02:26:44;;;;;;;1.20;0.40;;;8.10;96.70;;;;;;4990014;28;20542;-77
2021/04/14 02:29:12;;;;;;;0.50;0.20;;;8.00;96.70;;;;;;4981722;28;20042;-76
2021/04/14 02:31:40;;;;;;;0.40;0.30;;;8.00;96.70;;;;;;4986122;28;20069;-76
2021/04/14 02:34:11;;;;;;;0.40;0.17;;;8.00;96.70;;;;;;4977463;28;20042;-76
2021/04/14 02:36:39;;;;;;;0.20;0.17;;;8.00;96.70;;;;;;4997120;28;20042;-75
2021/04/14 02:39:08;;;;;;;0.28;0.22;;;8.00;96.70;;;;;;4982194;28;20073;-75
2021/04/14 02:41:36;;;;;;;0.52;0.28;;;7.90;96.70;;;;;;4980969;28;20049;-76
2021/04/14 02:44:04;;;;;;;0.40;0.30;;;8.00;96.70;;;;;;4970452;28;20814;-76
2021/04/14 02:46:31;;;;;;;0.63;0.30;;;8.10;96.70;;;;;;4990780;28;20120;-76
2021/04/14 02:49:00;;;;;;;3.13;0.88;;;8.00;96.70;;;;;;4982110;28;20049;-75
2021/04/14 02:51:28;;;;;;;0.50;0.28;;;8.00;96.70;;;;;;4982919;28;20061;-76
2021/04/14 02:53:55;;;;;;;0.40;0.20;;;8.00;96.70;;;;;;4981340;28;20045;-75
2021/04/14 02:56:23;;;;;;;1.23;0.28;;;7.90;96.70;;;;;;4981462;28;20042;-75
2021/04/14 02:58:51;;;;;;;0.38;0.28;;;7.80;96.70;;;;;;4976407;28;20240;-76
2021/04/14 03:01:18;;;;;;;0.40;0.17;;;7.80;96.70;;;;;;4992464;28;20042;-76
2021/04/14 03:03:46;;;;;;;0.88;0.50;;;7.80;96.70;;;;;;4974169;28;20053;-76
2021/04/14 03:06:15;;;;;;;0.60;0.20;;;7.70;96.70;;;;;;4983156;28;20026;-75
2021/04/14 03:08:42;;;;;;;0.50;0.30;;;7.70;96.70;;;;;;4982205;28;20496;-76
2021/04/14 03:11:10;;;;;;;0.65;0.40;;;7.70;96.70;;;;;;4981564;28;20429;-75
2021/04/14 03:13:37;;;;;;;1.25;0.25;;;7.70;96.70;;;;;;4984797;28;20038;-76
2021/04/14 03:16:05;;;;;;;0.30;0.20;;;7.60;96.70;;;;;;4971294;28;20416;-75
2021/04/14 03:18:33;;;;;;;0.68;0.20;;;7.60;96.70;;;;;;4971286;28;20097;-75
2021/04/14 03:21:02;;;;;;;0.32;0.20;;;7.60;96.70;;;;;;4987109;28;20049;-75
2021/04/14 03:23:31;;;;;;;1.80;0.40;;;7.70;96.70;;;;;;4998294;28;20198;-75
2021/04/14 03:25:59;;;;;;;0.55;0.40;;;7.70;96.70;;;;;;4991532;28;20133;-75
2021/04/14 03:28:26;;;;;;;1.10;0.30;;;7.70;96.70;;;;;;4982017;28;20394;-75
2021/04/14 03:30:55;;;;;;;0.43;0.30;;;7.50;96.70;;;;;;4999654;28;20488;-75
2021/04/14 03:33:22;;;;;;;1.52;0.20;;;7.50;96.70;;;;;;4981914;28;20045;-76
2021/04/14 03:35:50;;;;;;;0.50;0.20;;;7.40;96.70;;;;;;4990716;28;20052;-75
2021/04/14 03:38:18;;;;;;;0.82;0.38;;;7.50;96.70;;;;;;4977360;28;20041;-75
2021/04/14 03:40:47;;;;;;;0.50;0.30;;;7.50;96.70;;;;;;4960840;28;20405;-75
2021/04/14 03:43:15;;;;;;;1.55;0.30;;;7.60;96.70;;;;;;4943834;28;20137;-75
2021/04/14 03:45:45;;;;;;;0.60;0.30;;;7.50;96.70;;;;;;4962504;28;20038;-75
2021/04/14 03:48:13;;;;;;;1.63;0.50;;;7.50;96.70;;;;;;4961458;28;20056;-76
2021/04/14 03:50:40;;;;;;;1.50;0.50;;;7.40;96.70;;;;;;4964504;28;20481;-75
2021/04/14 03:53:14;;;;;;;0.73;0.28;;;7.40;96.70;;;;;;4944723;28;20054;-76
2021/04/14 03:55:42;;;;;;;0.50;0.20;;;7.50;96.70;;;;;;4961404;28;20053;-75
2021/04/14 03:58:30;;;;;;;0.98;0.75;;;7.50;96.70;;;;;;4945329;28;20046;-75
2021/04/14 04:01:01;;;;;;;1.25;0.38;;;7.50;96.70;;;;;;4954920;28;20050;-76
2021/04/14 04:03:29;;;;;;;0.80;0.32;;;7.40;96.70;;;;;;4949808;28;20586;-75
2021/04/14 04:05:57;;;;;;;1.42;0.35;;;7.30;96.70;;;;;;4955423;28;20049;-74
2021/04/14 04:08:25;;;;;;;0.60;0.38;;;7.30;96.70;;;;;;4948234;28;20056;-73
2021/04/14 04:10:53;;;;;;;0.77;0.35;;;7.20;96.70;;;;;;4944860;28;20058;-74
2021/04/14 04:13:20;;;;;;;1.50;0.50;;;7.10;96.70;;;;;;4962178;28;20042;-74
2021/04/14 04:15:49;;;;;;;1.13;0.50;;;7.10;96.70;;;;;;4954766;28;20046;-73
2021/04/14 04:18:17;;;;;;;0.95;0.30;;;7.10;96.70;;;;;;4963905;28;20050;-73
2021/04/14 04:20:45;;;;;;;0.75;0.50;;;7.00;96.70;;;;;;4962888;28;20318;-74
2021/04/14 04:23:13;;;;;;;1.10;0.30;;;7.00;96.70;;;;;;4980008;28;20081;-73
2021/04/14 04:25:41;;;;;;;0.52;0.20;;;7.10;96.70;;;;;;4979751;28;20052;-73
2021/04/14 04:28:09;;;;;;;0.55;0.30;;;7.00;96.70;;;;;;4966169;28;20117;-74
2021/04/14 04:30:37;;;;;;;1.20;0.40;;;7.00;96.70;;;;;;4944449;28;20529;-74
2021/04/14 04:33:07;;;;;;;1.30;0.40;;;7.10;96.70;;;;;;4957037;28;20038;-73
2021/04/14 04:35:35;;;;;;;0.55;0.30;;;7.30;96.70;;;;;;4966909;28;20043;-74
2021/04/14 04:38:03;;;;;;;4.40;0.70;;;7.20;96.70;;;;;;4960577;28;20136;-73
2021/04/14 04:40:31;;;;;;;0.95;0.35;;;7.20;96.70;;;;;;4971474;28;20538;-73
2021/04/14 04:42:59;;;;;;;2.50;0.50;;;7.10;96.70;;;;;;4980534;28;20062;-73
2021/04/14 04:45:29;;;;;;;0.60;0.30;;;7.10;96.70;;;;;;4982924;28;20042;-74
2021/04/14 04:47:57;;;;;;;0.70;0.30;;;7.10;96.70;;;;;;4963489;28;20089;-74
2021/04/14 04:50:27;;;;;;;1.05;0.28;;;7.00;96.70;;;;;;4959386;28;20048;-74
2021/04/14 04:52:56;;;;;;;0.93;0.30;;;7.10;96.70;;;;;;4967214;28;20116;-75
2021/04/14 04:55:24;;;;;;;1.13;0.40;;;7.20;96.70;;;;;;4964749;28;20034;-75
2021/04/14 04:58:05;;;;;;;3.38;0.60;;;7.20;96.70;;;;;;4967003;28;20132;-75
2021/04/14 05:00:34;;;;;;;1.13;0.40;;;7.10;96.70;;;;;;4971641;28;20077;-75
2021/04/14 05:03:03;;;;;;;1.95;0.45;;;7.10;96.70;;;;;;4979612;28;20047;-75
2021/04/14 05:05:34;;;;;;;2.28;0.60;;;7.20;96.70;;;;;;4958563;28;20051;-75
2021/04/14 05:08:01;;;;;;;4.35;0.60;;;7.20;96.70;;;;;;4978071;28;20462;-75
2021/04/14 05:10:30;;;;;;;0.57;0.38;;;7.20;96.70;;;;;;4973662;28;20062;-75
2021/04/14 05:12:58;;;;;;;1.27;0.43;;;7.10;96.70;;;;;;4982494;28;20045;-76
2021/04/14 05:15:28;;;;;;;2.78;0.50;;;7.10;96.70;;;;;;4986233;28;20089;-75
2021/04/14 05:17:56;;;;;;;1.20;0.40;;;7.00;96.70;;;;;;4965338;28;20961;-75
2021/04/14 05:20:23;;;;;;;3.92;0.65;;;7.00;96.70;;;;;;4993152;28;20038;-76
2021/04/14 05:22:52;;;;;;;1.95;0.40;;;7.00;96.70;;;;;;4981307;28;20121;-75
2021/04/14 05:25:22;;;;;;;1.90;0.80;;;6.90;96.70;;;;;;4964037;28;20039;-75
2021/04/14 05:27:52;;;;;;;2.17;0.40;;;6.90;96.70;;;;;;4983370;28;20069;-75
2021/04/14 05:30:21;;;;;;;1.23;0.50;;;6.90;96.70;;;;;;4977237;28;20042;-75
2021/04/14 05:32:49;;;;;;;1.33;0.50;;;6.90;96.70;;;;;;4966090;28;20150;-75
2021/04/14 05:35:17;;;;;;;2.55;0.63;;;6.90;96.70;;;;;;4972667;28;20042;-75
2021/04/14 05:37:44;;;;;;;1.33;0.60;;;7.00;96.70;;;;;;4967951;28;20051;-75
2021/04/14 05:40:15;;;;;;;3.40;1.27;;;7.00;96.70;;;;;;4980056;28;20052;-75
2021/04/14 05:42:44;;;;;;;6.68;1.33;;;7.20;96.70;;;;;;4962396;28;20041;-75
2021/04/14 05:45:15;;;;;;;3.17;1.13;;;7.20;96.70;;;;;;4985167;28;20058;-74
2021/04/14 05:47:43;;;;;;;4.47;1.17;;;7.30;96.70;;;;;;4984106;28;20086;-75
2021/04/14 05:50:13;;;;;;;6.03;1.70;;;7.40;96.70;;;;;;4984223;28;20046;-74
2021/04/14 05:52:41;;;;;;;4.22;1.08;;;7.40;96.70;;;;;;4982720;28;20057;-75
2021/04/14 05:55:09;;;;;;;3.60;1.27;;;7.40;96.70;;;;;;5001834;28;20125;-74
2021/04/14 05:57:38;;;;;;;3.67;0.70;;;7.50;96.70;;;;;;4982219;28;20046;-76
2021/04/14 06:00:08;;;;;;;1.83;1.00;;;7.50;96.70;;;;;;4981628;28;20153;-74
2021/04/14 06:02:36;;;;;;;2.38;0.90;;;7.60;96.70;;;;;;4982134;28;20049;-74
2021/04/14 06:05:05;;;;;;;3.53;0.80;;;7.80;96.70;;;;;;4982787;28;20041;-75
2021/04/14 06:07:33;;;;;;;4.13;1.10;;;7.80;96.70;;;;;;4971355;28;20046;-75
2021/04/14 06:10:01;;;;;;;1.48;0.90;;;7.70;96.70;;;;;;4982722;28;20030;-76
2021/04/14 06:12:29;;;;;;;1.35;0.60;;;7.80;96.70;;;;;;4983257;28;20076;-75
2021/04/14 06:14:58;;;;;;;1.67;0.65;;;7.80;96.70;;;;;;4980724;28;20574;-76
2021/04/14 06:17:26;;;;;;;1.80;0.73;;;7.80;96.70;;;;;;4970582;28;20046;-76
2021/04/14 06:19:54;;;;;;;3.83;0.88;;;7.90;96.70;;;;;;4973416;28;20045;-75
2021/04/14 06:22:22;;;;;;;1.73;0.85;;;8.10;96.70;;;;;;5004529;28;20050;-75
2021/04/14 06:24:49;;;;;;;1.30;0.85;;;8.20;96.70;;;;;;4990583;28;20065;-77
2021/04/14 06:27:29;;;;;;;2.13;0.95;;;8.30;96.70;;;;;;5003612;28;20052;-76
2021/04/14 06:29:58;;;;;;;0.82;0.60;;;8.40;96.70;;;;;;4996578;28;20048;-76
2021/04/14 06:32:26;;;;;;;0.90;0.70;;;8.30;96.70;;;;;;4998118;28;20292;-75
2021/04/14 06:34:54;;;;;;;0.95;0.60;;;8.30;96.70;;;;;;4999824;28;20042;-75
2021/04/14 06:37:22;;;;;;;1.35;0.70;;;8.30;96.70;;;;;;4984731;28;20084;-76
2021/04/14 06:42:58;;;;;;;2.90;0.70;;;8.60;96.70;;;;;;4939859;28;20281;-76
2021/04/14 06:45:31;;;;;;;1.27;0.63;;;8.70;96.70;;;;;;4982440;28;20045;-76
2021/04/14 06:48:22;;;;;;;1.55;0.80;;;8.60;96.70;;;;;;4981794;28;20057;-75
2021/04/14 06:50:59;;;;;;;1.40;1.00;;;8.70;96.70;;;;;;4981070;28;20045;-75
2021/04/14 06:53:36;;;;;;;5.55;0.77;;;8.80;96.70;;;;;;4979717;28;20127;-75
2021/04/14 06:56:07;;;;;;;1.75;0.63;;;8.90;96.70;;;;;;4979967;28;20042;-75
2021/04/14 06:58:39;;;;;;;1.40;0.77;;;9.00;96.70;;;;;;4960939;28;20046;-75
2021/04/14 07:01:12;;;;;;;2.38;0.90;;;8.90;96.70;;;;;;4989264;28;20173;-75
2021/04/14 07:03:47;;;;;;;3.78;0.95;;;9.10;96.70;;;;;;4980687;28;20169;-76
2021/04/14 07:06:19;;;;;;;3.33;1.20;;;9.10;96.70;;;;;;4963897;28;20132;-74
2021/04/14 07:09:15;;;;;;;1.52;0.90;;;9.20;96.70;;;;;;4994107;28;20045;-75
2021/04/14 07:11:44;;;;;;;2.40;0.88;;;9.20;96.70;;;;;;4984244;28;20054;-75
2021/04/14 07:14:12;;;;;;;1.23;0.77;;;9.30;96.70;;;;;;4979773;28;20042;-75
2021/04/14 07:17:05;;;;;;;1.88;0.88;;;9.30;96.70;;;;;;4982075;28;20113;-75
2021/04/14 07:19:54;;;;;;;1.85;0.80;;;9.40;96.70;;;;;;4976673;28;20046;-75
2021/04/14 07:22:32;;;;;;;2.30;1.00;;;9.40;96.70;;;;;;4966952;28;20152;-76
2021/04/14 07:25:04;;;;;;;2.80;0.90;;;9.50;96.70;;;;;;4998755;28;20046;-76
2021/04/14 07:27:39;;;;;;;1.80;0.80;;;9.50;96.70;;;;;;4979995;28;20049;-75
2021/04/14 07:30:13;;;;;;;2.70;1.25;;;9.60;96.70;;;;;;5001939;28;20049;-76
2021/04/14 07:32:51;;;;;;;2.13;1.15;;;9.70;96.70;;;;;;5000069;28;20042;-75
2021/04/14 07:35:27;;;;;;;2.97;1.33;;;9.70;96.70;;;;;;4980927;28;20046;-75
2021/04/14 07:38:02;;;;;;;2.70;1.10;;;9.80;96.70;;;;;;4971421;28;20046;-76
2021/04/14 07:40:41;;;;;;;2.08;1.23;;;9.90;96.70;;;;;;4992097;28;20058;-75
2021/04/14 07:43:18;;;;;;;2.45;1.52;;;10.00;96.70;;;;;;4975470;28;20496;-76
2021/04/14 07:45:50;;;;;;;4.40;1.98;;;10.00;96.70;;;;;;4963975;28;20046;-75
2021/04/14 07:48:23;;;;;;;4.25;2.10;;;10.10;96.70;;;;;;4982637;28;20157;-76
2021/04/14 07:50:57;;;;;;;3.78;2.50;;;10.20;96.70;;;;;;4983798;28;20057;-75
2021/04/14 07:53:27;;;;;;;4.82;2.30;;;10.20;96.70;;;;;;4972163;28;20488;-76
2021/04/14 07:56:04;;;;;;;4.05;2.10;;;10.30;96.70;;;;;;4992622;28;20119;-75
2021/04/14 07:58:33;;;;;;;5.22;1.90;;;10.40;96.70;;;;;;4983884;28;20049;-75
2021/04/14 08:01:13;;;;;;;3.60;2.10;;;10.50;96.70;;;;;;4982681;28;20045;-75
2021/04/14 08:03:43;;;;;;;3.42;2.10;;;10.60;96.70;;;;;;4979655;28;20088;-75
2021/04/14 08:06:13;;;;;;;3.45;1.95;;;10.70;96.70;;;;;;4968535;28;20042;-75
2021/04/14 08:08:42;;;;;;;2.00;1.38;;;10.80;96.70;;;;;;4999126;28;20040;-76
2021/04/14 08:11:16;;;;;;;2.90;1.70;;;10.90;96.70;;;;;;4974894;28;20046;-76
2021/04/14 08:13:48;;;;;;;3.25;1.38;;;10.90;94.70;;;;;;4978641;28;20050;-76
2021/04/14 08:16:30;;;;;;;2.33;0.90;;;11.00;95.00;;;;;;4997497;28;20048;-76
2021/04/14 08:19:03;;;;;;;2.78;1.30;;;11.20;93.40;;;;;;4981621;28;20123;-75
2021/04/14 08:21:37;;;;;;;1.90;0.88;;;11.30;92.30;;;;;;4984434;28;20046;-75
2021/04/14 08:24:24;;;;;;;1.80;0.90;;;11.40;90.50;;;;;;4979260;28;20054;-75
2021/04/14 08:26:54;;;;;;;1.70;0.90;;;11.60;90.20;;;;;;4976696;28;20494;-75
2021/04/14 08:29:22;;;;;;;1.73;0.95;;;11.60;89.90;;;;;;4980737;28;20594;-75
2021/04/14 08:31:50;;;;;;;2.58;1.50;;;11.60;88.60;;;;;;5001868;28;20147;-76
2021/04/14 08:34:24;;;;;;;3.55;1.48;;;11.60;88.40;;;;;;5001632;28;20227;-76
2021/04/14 08:36:59;;;;;;;1.98;1.30;;;11.60;88.60;;;;;;4989941;28;20296;-76
2021/04/14 08:39:30;;;;;;;2.90;1.70;;;11.70;88.80;;;;;;5000148;28;20057;-75
2021/04/14 08:42:15;;;;;;;2.67;1.50;;;11.80;89.10;;;;;;5002369;28;20057;-75
2021/04/14 08:44:45;;;;;;;2.28;1.17;;;11.90;88.50;;;;;;5004898;28;20065;-76
2021/04/14 08:47:18;;;;;;;1.95;1.33;;;12.00;88.60;;;;;;5000795;28;20168;-75
2021/04/14 08:49:51;;;;;;;3.80;1.60;;;12.00;87.80;;;;;;4970965;28;20137;-75
2021/04/14 08:52:35;;;;;;;2.67;1.30;;;12.00;88.20;;;;;;4984851;28;20042;-75
2021/04/14 08:55:04;;;;;;;3.75;1.27;;;12.00;88.30;;;;;;4988193;28;20207;-75
2021/04/14 08:57:32;;;;;;;2.65;1.35;;;12.10;88.30;;;;;;4962573;28;20124;-75
2021/04/14 09:00:00;;;;;;;1.70;1.23;;;12.10;88.10;;;;;;5005273;28;20037;-76
2021/04/14 09:02:28;;;;;;;2.50;1.15;;;12.20;88.00;;;;;;4983595;28;20388;-75
2021/04/14 09:04:58;;;;;;;1.77;0.90;;;12.40;87.60;;;;;;4991900;28;20069;-76
2021/04/14 09:07:31;;;;;;;2.08;1.33;;;12.50;86.10;;;;;;5003425;28;20165;-75
2021/04/14 09:10:00;;;;;;;1.83;1.30;;;12.60;86.40;;;;;;4987950;28;20505;-75
2021/04/14 09:12:35;;;;;;;1.92;1.25;;;12.50;85.40;;;;;;4979408;28;20046;-76
2021/04/14 09:15:05;;;;;;;1.95;1.15;;;12.40;86.30;;;;;;4989199;28;20172;-75
2021/04/14 09:17:33;;;;;;;1.38;0.85;;;12.50;85.40;;;;;;4996167;28;20046;-76
2021/04/14 09:20:20;;;;;;;0.80;0.68;;;12.70;85.30;;;;;;4981994;28;20141;-75
2021/04/14 09:22:59;;;;;;;1.75;0.65;;;12.70;84.00;;;;;;4984535;28;20061;-75
2021/04/14 09:25:38;;;;;;;0.65;0.57;;;13.00;83.70;;;;;;4977909;28;20128;-75
2021/04/14 09:28:08;;;;;;;1.20;0.45;;;13.20;83.00;;;;;;4981076;28;20407;-76
2021/04/14 09:30:47;;;;;;;2.28;0.40;;;13.30;81.90;;;;;;4981808;28;20046;-75
2021/04/14 09:33:36;;;;;;;0.85;0.45;;;13.30;81.00;;;;;;4984244;28;20451;-75
2021/04/14 09:36:08;;;;;;;1.50;0.60;;;13.50;80.00;;;;;;4988058;28;20792;-76
2021/04/14 09:38:49;;;;;;;;;;;13.60;81.10;;;;;;5000852;28;20419;-75
2021/04/14 09:41:34;;;;;;;0.70;0.50;;;13.50;81.00;;;;;;4983584;28;20465;-76
2021/04/14 09:44:31;;;;;;;1.80;0.50;;;13.60;80.20;;;;;;4995303;28;20154;-76
2021/04/14 09:47:32;;;;;;;0.40;0.32;;;13.90;79.30;;;;;;4983908;28;20042;-76
2021/04/14 09:50:14;;;;;;;0.57;0.45;;;13.90;77.00;;;;;;4962785;28;20042;-76
2021/04/14 09:52:51;;;;;;;0.82;0.43;;;14.10;75.20;;;;;;4998117;28;20285;-75
2021/04/14 09:55:45;;;;;;;1.20;0.30;;;14.20;76.60;;;;;;4969093;28;20511;-75
2021/04/14 09:58:23;;;;;;;0.88;0.40;;;14.30;76.10;;;;;;4983533;28;20489;-76
2021/04/14 10:00:54;;;;;;;3.08;0.50;;;14.30;75.30;;;;;;4978341;28;20052;-76
2021/04/14 10:03:27;;;;;;;0.55;0.38;;;14.30;75.00;;;;;;4984755;28;20065;-76
2021/04/14 10:06:03;;;;;;;1.35;0.60;;;14.40;75.10;;;;;;4983845;28;20204;-76
2021/04/14 10:08:32;;;;;;;4.97;1.00;;;14.50;75.70;;;;;;4979867;28;20112;-76
2021/04/14 10:11:00;;;;;;;1.88;0.43;;;14.70;75.40;;;;;;4961067;28;20038;-75
2021/04/14 10:13:29;;;;;;;0.45;0.30;;;14.80;73.90;;;;;;4965537;28;20041;-75
2021/04/14 10:15:57;;;;;;;2.33;0.47;;;14.80;73.40;;;;;;4999430;28;20532;-75
2021/04/14 10:18:27;;;;;;;1.13;0.40;;;14.80;74.60;;;;;;5001643;28;20045;-75
2021/04/14 10:21:09;;;;;;;1.20;0.65;;;14.70;74.70;;;;;;4995516;28;20523;-75
2021/04/14 10:23:39;;;;;;;1.65;0.50;;;14.60;74.50;;;;;;4989573;28;20069;-76
2021/04/14 10:26:09;;;;;;;1.60;0.68;;;14.60;74.30;;;;;;4980586;28;21072;-77
2021/04/14 10:28:40;;;;;;;1.48;0.60;;;14.70;73.60;;;;;;4975593;28;20038;-75
2021/04/14 10:31:12;;;;;;;2.80;0.80;;;14.70;74.10;;;;;;4992531;28;20042;-76
2021/04/14 10:33:41;;;;;;;1.17;0.60;;;14.60;73.80;;;;;;4989845;28;20043;-76
2021/04/14 10:36:12;;;;;;;1.58;0.70;;;14.80;73.80;;;;;;4991588;28;20145;-75
2021/04/14 10:38:42;;;;;;;0.77;0.50;;;15.00;72.90;;;;;;5001066;28;20077;-76
2021/04/14 10:41:17;;;;;;;1.65;0.60;;;14.90;71.50;;;;;;4966634;28;20132;-76
2021/04/14 10:43:45;;;;;;;0.93;0.40;;;15.10;71.30;;;;;;4999551;28;20038;-76
2021/04/14 10:46:26;;;;;;;1.30;0.55;;;15.30;70.40;;;;;;4973562;28;20439;-75
2021/04/14 10:49:00;;;;;;;0.70;0.45;;;15.50;68.60;;;;;;4999557;28;20041;-76
2021/04/14 10:51:32;;;;;;;0.93;0.50;;;15.60;67.30;;;;;;4998354;28;20130;-75
2021/04/14 10:54:08;;;;;;;0.45;0.40;;;15.60;64.60;;;;;;4981832;28;20435;-75
2021/04/14 10:56:35;;;;;;;1.10;0.43;;;15.80;64.70;;;;;;4970430;28;20043;-76
2021/04/14 10:59:07;;;;;;;0.90;0.70;;;15.90;64.30;;;;;;4994277;28;20113;-76
2021/04/14 11:01:37;;;;;;;0.75;0.45;;;16.10;66.30;;;;;;4983213;28;20041;-76
2021/04/14 11:04:22;;;;;;;1.85;0.70;;;16.30;66.70;;;;;;4993768;28;20057;-76
2021/04/14 11:06:55;;;;;;;1.85;0.63;;;16.50;67.00;;;;;;4995841;28;20052;-78
2021/04/14 11:09:25;;;;;;;0.80;0.60;;;16.80;66.40;;;;;;4980163;28;20729;-76
2021/04/14 11:11:54;;;;;;;2.05;0.50;;;16.80;66.60;;;;;;4982280;28;20529;-76
2021/04/14 11:14:22;;;;;;;0.52;0.50;;;16.60;67.50;;;;;;4998698;28;20037;-76
2021/04/14 11:16:51;;;;;;;1.63;0.82;;;16.60;66.00;;;;;;4971361;28;20050;-76
2021/04/14 11:19:21;;;;;;;0.88;0.40;;;16.80;65.60;;;;;;4988088;28;20396;-76
2021/04/14 11:22:02;;;;;;;1.23;0.57;;;17.00;67.30;;;;;;4998527;28;20073;-76
2021/04/14 11:24:41;;;;;;;0.63;0.50;;;17.20;68.40;;;;;;4976404;28;20050;-76
2021/04/14 11:27:16;;;;;;;0.60;0.35;;;17.60;68.10;;;;;;4974998;28;20049;-75
2021/04/14 11:29:44;;;;;;;0.95;0.50;;;17.70;67.50;;;;;;4977947;28;20559;-76
2021/04/14 11:32:18;;;;;;;1.42;0.60;;;17.70;67.00;;;;;;4978278;28;20053;-76
2021/04/14 11:34:59;;;;;;;1.25;0.50;;;17.70;66.40;;;;;;4975576;28;20174;-75
2021/04/14 11:37:40;;;;;;;1.63;0.50;;;17.60;65.40;;;;;;4995919;28;20057;-76
2021/04/14 11:40:33;;;;;;;1.00;0.45;;;17.70;64.90;;;;;;4995026;28;20066;-76
2021/04/14 11:43:03;;;;;;;0.45;0.32;;;17.10;67.30;;;;;;4982396;28;20514;-76
2021/04/14 11:45:35;;;;;;;0.70;0.40;;;16.90;67.20;;;;;;4977166;28;20041;-75
2021/04/14 11:48:08;;;;;;;0.60;0.52;;;17.20;67.20;;;;;;4976823;28;20140;-76
2021/04/14 11:50:37;;;;;;;1.33;0.35;;;17.30;65.70;;;;;;4975812;28;20049;-76
2021/04/14 11:53:21;;;;;;;0.85;0.30;;;17.60;65.80;;;;;;4970289;28;20050;-75
2021/04/14 11:55:50;;;;;;;0.90;0.35;;;17.90;64.80;;;;;;4982881;28;20061;-75
2021/04/14 11:58:25;;;;;;;0.85;0.32;;;17.90;64.80;;;;;;4989150;28;20042;-75
2021/04/14 12:00:53;;;;;;;0.70;0.43;;;18.00;63.70;;;;;;4982969;28;20038;-74
2021/04/14 12:03:29;;;;;;;1.23;0.30;;;18.20;64.80;;;;;;4977102;28;20806;-75
2021/04/14 12:05:59;;;;;;;0.80;0.38;;;18.30;64.80;;;;;;4980832;28;20041;-75
2021/04/14 12:08:29;;;;;;;0.82;0.38;;;18.40;64.30;;;;;;4978661;28;20060;-74
2021/04/14 12:11:00;;;;;;;2.08;0.50;;;18.60;63.90;;;;;;4992934;28;20782;-75
2021/04/14 12:13:29;;;;;;;1.38;0.50;;;18.70;63.50;;;;;;4963604;28;20049;-75
2021/04/14 12:15:58;;;;;;;0.93;0.40;;;18.90;64.10;;;;;;4981528;28;20049;-75
2021/04/14 12:18:26;;;;;;;1.08;0.52;;;19.10;62.60;;;;;;4966142;28;20054;-76
2021/04/14 12:20:54;;;;;;;1.20;0.43;;;19.10;61.80;;;;;;4983234;28;20069;-76
2021/04/14 12:23:22;;;;;;;1.92;0.40;;;19.10;62.00;;;;;;4997884;28;20364;-76
2021/04/14 12:25:49;;;;;;;0.68;0.40;;;18.90;63.20;;;;;;4956767;28;20042;-76
2021/04/14 12:28:19;;;;;;;1.15;0.40;;;18.80;63.00;;;;;;4982546;28;20141;-76
2021/04/14 12:30:46;;;;;;;0.90;0.30;;;19.00;62.90;;;;;;4975211;28;20544;-77
2021/04/14 12:33:14;;;;;;;0.50;0.32;;;19.00;62.20;;;;;;4979879;28;20050;-76
2021/04/14 12:35:42;;;;;;;1.90;0.60;;;19.00;61.80;;;;;;4996064;28;20487;-76
2021/04/14 12:38:10;;;;;;;0.70;0.30;;;19.10;60.50;;;;;;4981644;28;20038;-76
2021/04/14 12:40:38;;;;;;;0.82;0.17;;;19.10;58.70;;;;;;4977084;28;20089;-76
2021/04/14 12:43:06;;;;;;;1.70;0.40;;;18.70;59.50;;;;;;4983033;28;20411;-76
2021/04/14 12:45:39;;;;;;;0.52;0.25;;;18.60;60.80;;;;;;4976693;28;20065;-76
2021/04/14 12:48:11;;;;;;;0.63;0.40;;;18.50;61.60;;;;;;4977498;28;20119;-76
2021/04/14 12:51:07;;;;;;;1.30;0.30;;;18.60;60.50;;;;;;4982306;28;20070;-76
2021/04/14 12:53:39;;;;;;;2.13;0.38;;;18.70;60.20;;;;;;4989910;28;20038;-75
2021/04/14 12:56:09;;;;;;;0.90;0.50;;;18.90;59.80;;;;;;4978484;28;20050;-76
2021/04/14 12:58:42;;;;;;;3.60;0.60;;;18.80;60.40;;;;;;4990134;28;20567;-76
2021/04/14 13:01:11;;;;;;;1.95;0.40;;;18.80;60.50;;;;;;4980875;28;20049;-76
2021/04/14 13:03:45;;;;;;;1.65;0.40;;;18.80;60.60;;;;;;4993272;28;20042;-76
2021/04/14 13:06:19;;;;;;;;;;;18.80;60.50;;;;;;4977206;28;20066;-75
2021/04/14 13:08:48;;;;;;;0.80;0.30;;;18.70;60.00;;;;;;4980240;28;19999;-75
2021/04/14 13:11:19;;;;;;;0.60;0.30;;;18.30;59.80;;;;;;4968738;28;20042;-75
2021/04/14 13:13:47;;;;;;;1.95;0.38;;;18.00;61.30;;;;;;4981283;28;20050;-75
2021/04/14 13:16:22;;;;;;;0.88;0.50;;;17.90;61.40;;;;;;5000822;28;20080;-75